Time;durP1;ratioP1;P1;durP2;ratioP2;P2;SDS_P1;SDS_P2;PMS_P1;PMS_P2;Temp;Humidity;BMP_temperature;BMP_pressure;BME280_temperature;BME280_humidity;BME280_pressure;Samples;Min_cycle;Max_cycle;Signal;HPM_P1;HPM_P2
2022/01/16 00:01:47;;;;;;;57.60;23.92;;;1.50;84.20;;;-0.69;97.57;96727.75;4908098;29;20047;-64
2022/01/16 00:04:12;;;;;;;47.50;22.10;;;1.60;84.20;;;-0.76;97.19;96732.50;4915200;29;20032;-64
2022/01/16 00:06:45;;;;;;;51.65;23.50;;;1.60;84.00;;;-0.67;97.13;96719.00;4899740;29;20108;-64
2022/01/16 00:09:11;;;;;;;53.58;22.27;;;1.60;83.90;;;-0.69;97.63;96705.31;4909661;29;20040;-65
2022/01/16 00:11:37;;;;;;;54.75;22.50;;;1.60;83.80;;;-0.67;97.76;96718.16;4908363;29;20040;-64
2022/01/16 00:14:04;;;;;;;55.47;22.58;;;1.60;84.10;;;-0.66;97.36;96718.06;4893411;29;20032;-64
2022/01/16 00:16:30;;;;;;;49.60;22.40;;;1.60;83.90;;;-0.65;97.69;96711.94;4893066;29;20413;-64
2022/01/16 00:18:55;;;;;;;45.10;20.73;;;1.70;83.90;;;-0.66;97.61;96715.47;4906109;29;20091;-63
2022/01/16 00:21:40;;;;;;;47.08;21.52;;;1.60;83.80;;;-0.67;98.21;96703.47;4890321;29;20072;-62
2022/01/16 00:24:06;;;;;;;51.50;21.92;;;1.60;83.90;;;-0.65;97.17;96700.78;4921752;23;20059;-65
2022/01/16 00:26:33;;;;;;;50.88;22.83;;;1.60;83.70;;;-0.66;97.66;96714.66;4891798;29;20043;-66
2022/01/16 00:28:58;;;;;;;79.60;21.48;;;1.60;83.70;;;-0.68;97.70;96680.31;4900511;29;20147;-66
2022/01/16 00:31:24;;;;;;;54.25;21.95;;;1.60;83.60;;;-0.68;96.77;96668.25;4913842;29;20048;-67
2022/01/16 00:33:51;;;;;;;91.40;21.90;;;1.60;83.80;;;-0.70;97.34;96682.19;4896494;29;20457;-66
2022/01/16 00:36:18;;;;;;;49.03;21.17;;;1.50;83.80;;;-0.75;97.57;96697.16;4903715;29;20048;-67
2022/01/16 00:38:46;;;;;;;63.70;21.23;;;1.40;84.10;;;-0.77;97.40;96694.69;4883653;29;20578;-66
2022/01/16 00:41:12;;;;;;;49.60;20.23;;;1.30;84.00;;;-0.83;97.12;96677.03;4905825;29;20056;-66
2022/01/16 00:43:38;;;;;;;47.05;20.10;;;1.20;84.40;;;-0.83;96.64;96692.53;4934309;28;20508;-67
2022/01/16 00:46:03;;;;;;;47.15;20.17;;;1.30;84.20;;;-0.83;96.98;96692.53;4924416;29;20040;-66
2022/01/16 00:48:29;;;;;;;47.83;20.02;;;1.30;84.20;;;-0.84;96.93;96696.06;4906428;29;20040;-67
2022/01/16 00:50:55;;;;;;;49.42;20.38;;;1.40;84.10;;;-0.83;97.67;96666.72;4888471;29;20070;-66
2022/01/16 00:53:21;;;;;;;52.63;18.70;;;1.40;84.10;;;-0.85;97.01;96678.91;4913256;29;20046;-66
2022/01/16 00:55:46;;;;;;;50.72;19.27;;;1.30;83.80;;;-0.88;96.99;96676.53;4926099;29;20104;-67
2022/01/16 00:58:12;;;;;;;41.97;18.17;;;1.30;83.90;;;-0.87;97.28;96677.34;4889359;29;20103;-66
2022/01/16 01:00:38;;;;;;;43.65;18.30;;;1.30;83.90;;;-0.89;97.23;96676.66;4912050;29;20098;-68
2022/01/16 01:03:06;;;;;;;40.38;17.88;;;1.30;83.70;;;-0.92;96.82;96667.31;4912905;29;20082;-67
2022/01/16 01:05:33;;;;;;;43.63;17.95;;;1.30;83.80;;;-0.92;96.78;96682.81;4912496;29;20067;-67
2022/01/16 01:07:58;;;;;;;64.80;17.92;;;1.20;83.90;;;-0.98;96.48;96719.38;4897389;29;20163;-66
2022/01/16 01:10:30;;;;;;;53.88;17.35;;;1.00;84.20;;;-1.00;96.84;96726.41;4923805;29;20554;-66
2022/01/16 01:13:07;;;;;;;42.15;18.50;;;1.10;84.40;;;-1.01;97.01;96719.59;4911126;29;20099;-67
2022/01/16 01:15:41;;;;;;;56.90;18.60;;;1.10;84.60;;;-1.00;97.40;96710.91;4927925;29;20032;-66
2022/01/16 01:18:06;;;;;;;56.63;18.70;;;1.10;84.50;;;-1.01;97.27;96694.59;4911700;29;20429;-66
2022/01/16 01:20:32;;;;;;;51.75;19.70;;;1.20;84.40;;;-1.00;97.39;96638.63;4895743;29;20043;-66
2022/01/16 01:22:58;;;;;;;49.03;20.15;;;1.20;84.50;;;-0.99;97.04;96624.78;4911535;29;20048;-66
2022/01/16 01:25:24;;;;;;;49.65;19.35;;;1.20;84.50;;;-0.99;97.62;96617.03;4920370;29;20486;-67
2022/01/16 01:27:50;;;;;;;47.95;19.77;;;1.20;84.40;;;-0.99;97.12;96623.03;4903747;29;20059;-66
2022/01/16 01:30:18;;;;;;;45.60;19.38;;;1.20;84.40;;;-0.97;97.76;96612.59;4926105;28;20065;-66
2022/01/16 01:32:46;;;;;;;49.28;20.13;;;1.20;84.40;;;-0.95;97.48;96634.78;4904277;29;20043;-66
2022/01/16 01:35:14;;;;;;;48.55;18.88;;;1.30;84.20;;;-0.94;97.66;96671.75;4926042;29;20416;-66
2022/01/16 01:37:41;;;;;;;46.75;20.08;;;1.40;84.40;;;-0.93;97.27;96676.00;4913847;29;20046;-66
2022/01/16 01:40:10;;;;;;;46.05;19.35;;;1.30;84.20;;;-0.93;97.55;96683.75;4911917;29;20054;-66
2022/01/16 01:42:44;;;;;;;44.88;19.08;;;1.40;84.30;;;-0.90;97.96;96680.16;4924827;29;20032;-67
2022/01/16 01:53:23;;;;;;;113.63;18.67;;;1.00;84.80;;;-1.04;97.58;96670.75;4926153;29;20042;-66
2022/01/16 01:55:49;;;;;;;45.63;18.48;;;1.00;85.00;;;-1.04;97.04;96663.00;4920134;29;20122;-66
2022/01/16 01:58:14;;;;;;;50.83;19.17;;;1.10;85.20;;;-1.05;97.91;96680.25;4929306;29;20102;-66
2022/01/16 02:00:41;;;;;;;44.63;18.63;;;1.10;85.20;;;-1.03;98.23;96682.72;4911177;29;20119;-66
2022/01/16 02:03:28;;;;;;;45.95;19.45;;;1.20;85.00;;;-1.04;98.18;96681.06;4915466;29;20622;-66
2022/01/16 02:05:54;;;;;;;42.72;17.58;;;1.20;84.80;;;-1.04;97.79;96699.97;4909719;29;20040;-66
2022/01/16 02:08:20;;;;;;;46.35;18.83;;;1.20;84.60;;;-1.03;97.87;96688.72;4916531;29;20122;-66
2022/01/16 02:10:46;;;;;;;44.33;18.48;;;1.20;84.60;;;-0.99;97.81;96702.25;4932010;29;20042;-66
2022/01/16 02:13:22;;;;;;;47.47;18.95;;;1.30;84.60;;;-0.99;98.16;96708.22;4913891;29;20035;-66
2022/01/16 02:34:46;;;;;;;97.45;21.95;;;1.20;85.90;;;-1.03;99.05;96667.25;4866959;29;20064;-66
2022/01/16 02:37:14;;;;;;;86.43;21.92;;;1.10;85.80;;;-1.07;99.16;96673.53;4931920;29;20040;-66
2022/01/16 02:39:45;;;;;;;65.70;22.23;;;1.10;86.00;;;-1.08;98.95;96656.41;4912600;29;20028;-67
2022/01/16 02:42:11;;;;;;;80.13;21.57;;;1.10;86.10;;;-1.06;99.64;96649.38;4910648;29;20054;-66
2022/01/16 02:44:48;;;;;;;80.18;22.75;;;1.20;86.00;;;-1.03;99.39;96649.16;4930958;29;20036;-66
2022/01/16 02:47:18;;;;;;;69.75;22.77;;;1.20;85.90;;;-1.03;100.00;96650.00;4902362;29;20098;-67
2022/01/16 02:49:47;;;;;;;68.50;23.65;;;1.30;85.90;;;-1.01;99.77;96650.72;4884597;28;20119;-67
2022/01/16 02:52:17;;;;;;;94.82;23.15;;;1.20;85.80;;;-1.00;99.88;96633.47;4900517;29;20103;-67
2022/01/16 02:54:46;;;;;;;90.40;23.02;;;1.20;85.60;;;-1.02;99.71;96632.75;4884303;29;20027;-66
2022/01/16 02:57:15;;;;;;;94.35;24.25;;;1.10;86.10;;;-1.04;99.48;96639.78;4915688;29;20040;-67
2022/01/16 02:59:48;;;;;;;75.75;24.00;;;1.10;86.60;;;-1.03;99.45;96634.50;4896334;29;20497;-67
2022/01/16 03:02:13;;;;;;;68.60;24.08;;;1.10;86.40;;;-1.02;99.96;96636.16;4921280;29;20031;-67
2022/01/16 03:04:39;;;;;;;111.28;25.13;;;1.30;86.20;;;-1.00;99.97;96629.13;4902986;29;20064;-68
2022/01/16 03:07:05;;;;;;;69.82;22.83;;;1.20;86.20;;;-1.01;99.97;96627.47;4913400;29;20292;-67
2022/01/16 03:09:51;;;;;;;97.47;23.63;;;1.20;86.50;;;-1.02;99.80;96627.56;4914972;29;20030;-67
2022/01/16 03:12:17;;;;;;;103.45;24.38;;;1.10;86.40;;;-1.09;100.00;96629.75;4905235;29;20035;-67
2022/01/16 03:14:42;;;;;;;68.30;21.92;;;0.90;86.90;;;-1.14;99.91;96625.81;4899472;29;20416;-67
2022/01/16 03:17:10;;;;;;;96.25;23.20;;;0.80;87.10;;;-1.20;100.00;96621.06;4915236;29;20539;-66
2022/01/16 03:22:22;;;;;;;60.85;21.60;;;0.60;87.20;;;-1.27;100.00;96613.75;4914183;29;20055;-67
2022/01/16 03:24:48;;;;;;;72.65;22.42;;;0.70;87.40;;;-1.29;100.00;96613.03;4946305;28;20396;-67
2022/01/16 03:27:16;;;;;;;58.67;21.25;;;0.70;87.10;;;-1.33;100.00;96627.09;4912173;29;20099;-68
2022/01/16 03:29:44;;;;;;;77.18;22.15;;;0.70;87.10;;;-1.38;100.00;96626.53;4929006;29;20039;-67
2022/01/16 03:32:13;;;;;;;62.65;21.75;;;0.60;87.10;;;-1.39;100.00;96621.50;4898890;29;20032;-67
2022/01/16 03:34:39;;;;;;;72.88;21.80;;;0.60;87.40;;;-1.42;100.00;96619.94;4929026;29;20034;-67
2022/01/16 03:37:05;;;;;;;62.58;20.80;;;0.50;87.00;;;-1.48;99.97;96612.63;4930591;29;20043;-67
2022/01/16 03:39:31;;;;;;;64.90;21.08;;;0.40;87.50;;;-1.50;100.00;96609.31;4914381;29;20028;-68
2022/01/16 03:41:58;;;;;;;64.50;20.65;;;0.50;87.50;;;-1.53;100.00;96598.38;4911620;29;20027;-67
2022/01/16 03:44:24;;;;;;;65.82;19.58;;;0.40;87.50;;;-1.57;100.00;96590.03;4915064;29;20036;-67
2022/01/16 03:46:50;;;;;;;71.70;19.88;;;0.30;87.40;;;-1.59;100.00;96584.13;4916892;29;20190;-67
2022/01/16 03:49:22;;;;;;;68.88;19.90;;;0.40;87.40;;;-1.57;100.00;96590.03;4912092;29;20119;-68
2022/01/16 03:51:49;;;;;;;79.70;19.50;;;0.50;87.20;;;-1.57;100.00;96592.59;4912243;29;20042;-66
2022/01/16 03:54:16;;;;;;;73.60;19.30;;;0.50;87.00;;;-1.60;100.00;96597.94;4914461;29;20035;-66
2022/01/16 03:56:42;;;;;;;60.28;20.83;;;0.40;87.20;;;-1.61;100.00;96606.59;4906901;29;20047;-66
2022/01/16 03:59:08;;;;;;;78.95;20.80;;;0.40;87.60;;;-1.59;100.00;96612.50;4901949;29;20169;-66
2022/01/16 04:01:34;;;;;;;89.72;21.05;;;0.50;87.30;;;-1.59;100.00;96615.91;4913498;29;20048;-66
2022/01/16 04:04:00;;;;;;;72.50;21.60;;;0.50;87.30;;;-1.57;100.00;96619.22;4904349;29;20036;-66
2022/01/16 04:06:25;;;;;;;83.05;22.23;;;0.50;87.40;;;-1.54;100.00;96625.94;4931359;29;20047;-67
2022/01/16 04:08:53;;;;;;;77.97;22.25;;;0.60;87.50;;;-1.56;100.00;96625.22;4915364;29;20036;-66
2022/01/16 04:11:19;;;;;;;66.25;21.38;;;0.60;87.60;;;-1.53;100.00;96622.44;4893198;29;20084;-65
2022/01/16 04:13:51;;;;;;;60.20;22.50;;;0.60;87.50;;;-1.51;100.00;96622.31;4899215;29;20051;-66
2022/01/16 04:16:17;;;;;;;58.47;20.95;;;0.60;87.00;;;-1.51;100.00;96620.56;4932936;29;20028;-66
2022/01/16 04:18:43;;;;;;;56.47;21.95;;;0.60;87.10;;;-1.48;100.00;96627.28;4894585;29;20459;-66
2022/01/16 04:21:09;;;;;;;58.13;21.60;;;0.60;86.80;;;-1.45;100.00;96637.38;4899457;29;20111;-66
2022/01/16 04:23:34;;;;;;;52.47;20.60;;;0.70;86.80;;;-1.43;100.00;96626.03;4923455;29;20031;-66
2022/01/16 04:26:00;;;;;;;52.97;20.75;;;0.80;86.60;;;-1.39;100.00;96622.31;4948967;28;20036;-66
2022/01/16 04:28:26;;;;;;;50.22;21.00;;;0.80;86.20;;;-1.39;100.00;96627.47;4899760;29;20082;-67
2022/01/16 04:30:52;;;;;;;54.50;21.35;;;0.80;86.40;;;-1.39;100.00;96619.72;4925924;29;20040;-67
2022/01/16 04:33:18;;;;;;;52.00;20.88;;;0.70;86.50;;;-1.36;100.00;96624.72;4908912;29;20051;-67
2022/01/16 04:35:44;;;;;;;56.60;21.75;;;0.80;86.50;;;-1.33;100.00;96621.91;4932110;29;20538;-67
2022/01/16 04:38:10;;;;;;;54.90;20.35;;;0.80;86.30;;;-1.32;100.00;96623.56;4927505;29;20047;-67
2022/01/16 04:40:43;;;;;;;58.90;21.85;;;0.90;86.40;;;-1.31;100.00;96620.06;4915080;29;20060;-67
2022/01/16 04:45:59;;;;;;;58.53;21.80;;;0.90;86.50;;;-1.27;100.00;96631.81;4914479;29;20043;-67
2022/01/16 04:48:25;;;;;;;58.85;22.02;;;0.90;86.40;;;-1.24;100.00;96628.22;4924189;29;20036;-67
2022/01/16 04:50:52;;;;;;;65.68;23.13;;;1.00;86.30;;;-1.20;100.00;96626.25;4915748;29;20066;-66
2022/01/16 04:53:18;;;;;;;60.40;22.77;;;1.10;86.20;;;-1.18;100.00;96625.19;4917672;29;20523;-66
2022/01/16 04:55:43;;;;;;;71.05;28.15;;;1.10;86.30;;;-1.15;100.00;96619.00;4931276;29;20036;-66
2022/01/16 04:58:09;;;;;;;77.00;27.75;;;1.10;86.40;;;-1.11;100.00;96620.47;4934992;29;20043;-66
2022/01/16 05:00:35;;;;;;;70.35;26.35;;;1.10;86.20;;;-1.09;100.00;96627.19;4917327;29;20477;-67
2022/01/16 05:03:01;;;;;;;84.53;29.80;;;1.20;86.30;;;-1.07;100.00;96616.75;4945702;28;20091;-67
2022/01/16 05:05:26;;;;;;;79.50;29.23;;;1.10;86.20;;;-1.06;100.00;96618.41;4931310;29;20044;-67
2022/01/16 05:07:52;;;;;;;73.78;30.75;;;1.20;86.30;;;-1.04;100.00;96626.84;4899261;29;20032;-68
2022/01/16 05:10:18;;;;;;;63.50;25.20;;;1.10;86.30;;;-1.05;100.00;96625.22;4916842;29;20044;-67
2022/01/16 05:12:46;;;;;;;70.07;26.50;;;1.00;86.50;;;-1.07;100.00;96625.31;4903125;29;20043;-67
2022/01/16 05:17:57;;;;;;;58.58;26.77;;;1.10;86.60;;;-1.03;100.00;96619.00;4933018;28;20051;-67
2022/01/16 05:20:23;;;;;;;55.10;27.50;;;1.10;86.20;;;-1.01;100.00;96621.47;4901892;29;20516;-67
2022/01/16 05:22:48;;;;;;;55.88;29.17;;;1.10;85.90;;;-1.02;100.00;96620.66;4934223;28;20039;-67
2022/01/16 05:25:16;;;;;;;50.90;27.42;;;1.00;85.50;;;-1.01;100.00;96621.47;4911765;29;20039;-67
2022/01/16 05:27:42;;;;;;;52.00;27.90;;;1.10;85.60;;;-1.04;99.72;96627.69;4932213;29;20024;-67
2022/01/16 05:30:08;;;;;;;49.70;27.42;;;0.90;85.50;;;-1.07;99.67;96632.22;4929668;29;20053;-67
2022/01/16 05:32:34;;;;;;;49.20;28.38;;;0.90;85.80;;;-1.06;99.88;96639.06;4916637;29;20032;-68
2022/01/16 05:35:00;;;;;;;49.10;27.25;;;0.90;85.60;;;-1.07;99.83;96634.81;4911284;29;20043;-71
2022/01/16 05:37:26;;;;;;;48.83;27.10;;;1.00;85.40;;;-1.06;99.57;96631.31;4914641;29;20115;-68
2022/01/16 05:39:51;;;;;;;48.28;27.20;;;1.00;85.40;;;-1.07;99.94;96632.22;4913785;29;20131;-68
2022/01/16 05:42:17;;;;;;;45.47;26.45;;;1.00;85.50;;;-1.06;99.78;96633.88;4919773;29;20032;-68
2022/01/16 05:44:43;;;;;;;48.72;27.83;;;1.00;85.30;;;-1.06;99.73;96629.56;4902861;29;20526;-67
2022/01/16 05:47:12;;;;;;;50.85;28.25;;;1.00;85.40;;;-1.07;99.55;96637.41;4926513;29;20126;-67
2022/01/16 05:49:40;;;;;;;50.10;28.58;;;1.00;85.50;;;-1.07;99.97;96642.56;4924233;29;20058;-67
2022/01/16 05:52:06;;;;;;;45.97;26.83;;;1.10;85.60;;;-1.06;99.83;96631.31;4938379;29;20058;-67
2022/01/16 05:54:33;;;;;;;53.45;28.88;;;1.10;85.60;;;-1.06;99.68;96624.38;4900373;29;20036;-67
2022/01/16 05:56:59;;;;;;;48.60;27.48;;;1.10;85.40;;;-1.06;99.45;96634.72;4915844;29;20031;-66
2022/01/16 05:59:25;;;;;;;54.20;28.60;;;1.10;85.50;;;-1.07;99.56;96643.38;4913367;29;20103;-67
2022/01/16 06:01:50;;;;;;;50.65;29.50;;;1.00;85.50;;;-1.07;99.41;96645.97;4881434;29;20100;-67
2022/01/16 06:04:16;;;;;;;49.70;28.20;;;1.00;85.80;;;-1.05;99.40;96651.03;4930967;28;20102;-67
2022/01/16 06:06:42;;;;;;;50.13;28.63;;;1.00;85.60;;;-1.06;99.28;96655.38;4916308;29;20058;-67
2022/01/16 06:09:08;;;;;;;53.88;28.35;;;1.00;85.50;;;-1.05;99.78;96661.34;4901970;29;20044;-67
2022/01/16 06:11:33;;;;;;;57.38;30.55;;;1.00;85.40;;;-1.08;99.58;96662.38;4927507;29;20039;-69
2022/01/16 06:13:59;;;;;;;51.88;30.13;;;0.90;85.70;;;-1.09;99.79;96662.50;4947568;28;20040;-67
2022/01/16 06:16:25;;;;;;;62.03;33.92;;;0.80;86.20;;;-1.10;100.00;96673.75;4922537;29;20046;-68
2022/01/16 06:18:52;;;;;;;59.58;32.97;;;0.80;86.40;;;-1.11;99.99;96666.94;4931338;29;20040;-67
2022/01/16 06:21:17;;;;;;;56.88;30.08;;;0.80;86.60;;;-1.09;99.84;96663.31;4931486;29;20046;-67
2022/01/16 06:23:43;;;;;;;55.20;31.58;;;0.90;86.10;;;-1.09;99.60;96662.50;4922637;29;20094;-67
2022/01/16 06:26:09;;;;;;;60.35;31.45;;;0.90;86.20;;;-1.09;99.74;96665.91;4898932;29;20119;-67
2022/01/16 06:28:34;;;;;;;60.97;31.63;;;0.90;86.00;;;-1.07;99.71;96673.53;4947460;28;20044;-67
2022/01/16 06:31:02;;;;;;;61.95;32.33;;;1.10;86.00;;;-1.06;99.85;96672.63;4931508;29;20063;-67
2022/01/16 06:33:28;;;;;;;60.60;31.67;;;1.00;85.80;;;-1.04;99.88;96668.16;4920972;29;20048;-67
2022/01/16 06:35:53;;;;;;;61.47;32.28;;;1.10;85.80;;;-1.06;99.68;96660.53;4922486;29;20050;-67
2022/01/16 06:38:19;;;;;;;57.72;31.77;;;0.90;85.60;;;-1.05;100.00;96663.94;4929303;29;20067;-67
2022/01/16 06:40:45;;;;;;;61.95;32.35;;;1.00;85.80;;;-1.04;99.91;96673.34;4922465;29;20071;-67
2022/01/16 06:43:10;;;;;;;60.72;32.95;;;1.00;86.00;;;-1.04;99.90;96674.16;4911940;29;20047;-66
2022/01/16 06:45:36;;;;;;;60.80;32.78;;;1.10;85.90;;;-1.03;99.70;96674.97;4896058;29;20115;-72
2022/01/16 06:48:02;;;;;;;61.53;33.38;;;1.10;86.20;;;-1.02;99.72;96672.28;4910415;29;20100;-68
2022/01/16 06:50:28;;;;;;;65.82;33.83;;;1.20;85.90;;;-0.98;100.00;96672.91;4938448;29;20039;-69
2022/01/16 06:52:53;;;;;;;65.47;33.67;;;1.10;85.80;;;-0.97;99.94;96682.31;4931043;29;20036;-70
2022/01/16 06:55:19;;;;;;;66.57;34.53;;;1.10;85.70;;;-0.98;99.77;96680.66;4930955;29;20055;-69
2022/01/16 06:57:45;;;;;;;66.30;34.20;;;1.10;85.60;;;-0.97;99.96;96684.88;4911394;29;20028;-67
2022/01/16 07:00:11;;;;;;;65.30;34.00;;;1.10;85.90;;;-0.97;99.88;96687.47;4927252;29;20043;-69
2022/01/16 07:02:36;;;;;;;62.13;33.28;;;1.10;85.70;;;-0.95;99.35;96693.34;4924428;28;20084;-69
2022/01/16 07:05:04;;;;;;;66.40;35.38;;;1.20;85.70;;;-0.94;99.31;96692.41;4891594;29;20517;-69
2022/01/16 07:07:30;;;;;;;62.97;33.85;;;1.10;85.20;;;-0.94;99.62;96695.00;4946167;28;20091;-67
2022/01/16 07:09:56;;;;;;;63.08;34.70;;;1.10;85.20;;;-0.94;99.34;96685.50;4914843;29;20535;-68
2022/01/16 07:12:22;;;;;;;65.20;35.05;;;1.10;85.30;;;-0.96;99.06;96686.53;4899661;29;20036;-69
2022/01/16 07:14:48;;;;;;;64.22;34.45;;;1.00;85.40;;;-0.95;99.15;96689.00;4914060;28;20039;-68
2022/01/16 07:17:14;;;;;;;62.10;34.22;;;1.10;85.50;;;-0.94;99.46;96695.00;4931128;29;20032;-70
2022/01/16 07:19:40;;;;;;;68.78;36.35;;;1.10;85.60;;;-0.92;99.49;96699.13;4899002;29;20460;-69
2022/01/16 07:22:06;;;;;;;60.85;34.28;;;1.10;85.50;;;-0.91;99.29;96692.22;4912934;29;20052;-69
2022/01/16 07:24:31;;;;;;;67.80;36.13;;;1.20;85.50;;;-0.91;99.37;96689.63;4923406;29;20060;-68
2022/01/16 07:27:00;;;;;;;63.85;35.30;;;1.20;85.30;;;-0.87;99.44;96705.75;4930575;29;20433;-70
2022/01/16 07:29:27;;;;;;;66.50;36.00;;;1.20;85.30;;;-0.85;99.50;96714.25;4912943;29;20122;-67
2022/01/16 07:31:53;;;;;;;65.93;36.03;;;1.30;85.00;;;-0.83;99.71;96713.19;4926815;29;20035;-65
2022/01/16 07:34:19;;;;;;;65.75;36.10;;;1.30;85.10;;;-0.82;99.50;96720.00;4916349;29;20073;-67
2022/01/16 07:36:44;;;;;;;61.05;35.38;;;1.30;85.00;;;-0.82;99.46;96711.44;4905937;29;20512;-66
2022/01/16 07:39:10;;;;;;;67.28;36.20;;;1.20;85.00;;;-0.82;99.18;96725.19;4914832;29;20036;-66
2022/01/16 07:41:36;;;;;;;63.63;34.83;;;1.30;85.10;;;-0.80;99.40;96727.66;4914826;29;20044;-64
2022/01/16 07:44:02;;;;;;;63.35;35.90;;;1.30;84.80;;;-0.81;99.13;96708.75;4925655;29;20566;-66
2022/01/16 07:46:27;;;;;;;62.47;33.63;;;1.30;84.50;;;-0.79;98.98;96718.97;4930357;29;20043;-66
2022/01/16 07:48:53;;;;;;;62.65;34.17;;;1.30;84.80;;;-0.79;98.86;96724.97;4919080;29;20044;-67
2022/01/16 07:51:19;;;;;;;63.40;35.17;;;1.30;84.80;;;-0.76;98.99;96735.09;4907585;29;20519;-68
2022/01/16 07:53:45;;;;;;;71.47;40.63;;;1.40;84.50;;;-0.74;98.70;96745.31;4916165;29;20032;-67
2022/01/16 07:56:10;;;;;;;95.85;52.88;;;1.40;84.80;;;-0.73;98.53;96749.56;4922688;29;20058;-68
2022/01/16 07:58:36;;;;;;;64.40;35.08;;;1.30;84.70;;;-0.77;98.50;96759.25;4925912;29;20033;-68
2022/01/16 08:01:03;;;;;;;60.42;34.40;;;1.20;84.50;;;-0.76;98.23;96763.50;4910485;29;20110;-66
2022/01/16 08:03:29;;;;;;;68.75;36.92;;;1.20;84.30;;;-0.76;98.57;96760.91;4915691;29;20418;-66
2022/01/16 08:05:55;;;;;;;60.45;34.10;;;1.40;84.60;;;-0.73;98.42;96763.28;4948021;28;20031;-67
2022/01/16 08:08:20;;;;;;;58.35;32.65;;;1.30;84.30;;;-0.71;98.22;96761.44;4897579;29;20036;-67
2022/01/16 08:10:46;;;;;;;62.97;34.42;;;1.40;83.70;;;-0.68;98.26;96761.25;4929759;29;20512;-67
2022/01/16 08:13:12;;;;;;;62.03;35.03;;;1.50;83.80;;;-0.65;98.22;96761.03;4900400;29;20047;-66
2022/01/16 08:15:37;;;;;;;61.38;33.45;;;1.60;83.60;;;-0.59;98.05;96759.78;4913744;29;20301;-66
2022/01/16 08:18:03;;;;;;;57.78;33.25;;;1.70;83.00;;;-0.53;97.99;96743.03;4908030;29;20052;-66
2022/01/16 08:20:29;;;;;;;58.72;33.78;;;1.80;82.50;;;-0.48;97.61;96743.53;4930339;29;20058;-65
2022/01/16 08:22:55;;;;;;;56.97;32.05;;;1.90;82.30;;;-0.42;97.74;96749.13;4949139;28;20055;-65
2022/01/16 08:25:22;;;;;;;64.25;33.65;;;1.90;81.80;;;-0.36;97.23;96742.72;4932162;29;20214;-65
2022/01/16 08:27:47;;;;;;;64.57;34.17;;;2.10;82.20;;;-0.29;97.65;96743.09;4914562;29;20047;-67
2022/01/16 08:30:13;;;;;;;59.92;33.35;;;2.10;81.90;;;-0.21;97.61;96741.66;4914515;29;20110;-65
2022/01/16 08:32:39;;;;;;;58.40;32.95;;;2.30;81.50;;;-0.12;97.07;96748.75;4928585;28;20053;-67
2022/01/16 08:35:06;;;;;;;67.07;39.70;;;2.50;81.00;;;-0.04;97.30;96743.03;4914390;29;20260;-66
2022/01/16 08:37:32;;;;;;;61.80;37.50;;;2.50;81.00;;;0.07;97.24;96737.94;4917615;29;20039;-65
2022/01/16 08:39:58;;;;;;;56.72;35.50;;;2.70;80.60;;;0.15;97.15;96724.47;4934482;29;20028;-65
2022/01/16 08:42:23;;;;;;;59.50;34.70;;;2.70;79.90;;;0.20;96.54;96735.31;4931192;29;20043;-65
2022/01/16 08:44:49;;;;;;;56.53;34.83;;;2.80;79.80;;;0.27;96.36;96733.94;4902339;29;20051;-66
2022/01/16 08:47:15;;;;;;;53.70;31.63;;;2.70;79.60;;;0.30;95.75;96733.72;4928692;29;20067;-66
2022/01/16 08:49:41;;;;;;;55.20;32.33;;;2.80;79.70;;;0.33;95.59;96725.75;4902318;29;20040;-66
2022/01/16 08:52:07;;;;;;;54.88;32.92;;;2.90;78.90;;;0.43;95.23;96737.06;4933139;29;20079;-66
2022/01/16 08:54:33;;;;;;;51.92;31.83;;;3.10;78.20;;;0.52;95.12;96744.19;4933314;29;20039;-66
2022/01/16 08:57:03;;;;;;;51.55;31.30;;;3.50;77.80;;;0.67;95.15;96744.81;4901829;29;20055;-67
2022/01/16 08:59:28;;;;;;;48.28;30.13;;;3.80;76.20;;;0.81;95.08;96751.56;4901816;28;20035;-65
2022/01/16 09:01:54;;;;;;;50.60;32.20;;;4.00;75.40;;;0.92;94.69;96746.44;4917182;29;20078;-65
2022/01/16 09:04:20;;;;;;;51.45;31.75;;;4.10;75.50;;;1.08;94.65;96759.88;4916850;29;20039;-65
2022/01/16 09:06:46;;;;;;;49.58;31.40;;;4.10;74.80;;;1.21;94.22;96755.47;4933044;29;20044;-65
2022/01/16 09:09:11;;;;;;;52.50;30.80;;;4.40;74.10;;;1.35;93.90;96758.75;4909019;29;20091;-65
2022/01/16 09:11:37;;;;;;;46.55;29.77;;;4.50;73.20;;;1.48;93.25;96749.13;4962397;28;20035;-66
2022/01/16 09:14:03;;;;;;;45.97;28.30;;;4.70;72.90;;;1.60;92.59;96745.59;4918841;29;20150;-66
2022/01/16 09:16:30;;;;;;;45.70;29.33;;;5.00;72.40;;;1.75;92.64;96749.59;4898140;29;20040;-66
2022/01/16 09:18:56;;;;;;;43.78;30.08;;;5.10;71.30;;;1.87;92.04;96744.41;4930225;29;20464;-65
2022/01/16 09:21:21;;;;;;;46.35;30.60;;;5.10;71.30;;;1.94;91.56;96749.00;4932806;29;20043;-67
2022/01/16 09:23:48;;;;;;;45.25;29.02;;;5.10;70.30;;;2.00;90.73;96750.28;4908672;29;20051;-66
2022/01/16 09:26:14;;;;;;;46.90;31.05;;;5.10;70.80;;;2.08;90.55;96750.53;4930681;29;20039;-65
2022/01/16 09:28:41;;;;;;;45.38;30.75;;;5.10;71.10;;;2.13;90.05;96743.19;4885134;29;20123;-64
2022/01/16 09:31:07;;;;;;;46.42;30.55;;;5.20;71.00;;;2.19;89.87;96747.88;4913454;29;20687;-64
2022/01/16 09:33:33;;;;;;;44.97;29.55;;;5.50;70.20;;;2.30;89.28;96750.47;4866947;29;20044;-64
2022/01/16 09:35:59;;;;;;;43.35;30.17;;;6.30;67.50;;;2.44;89.14;96742.41;4931594;29;20035;-64
2022/01/16 09:38:25;;;;;;;45.28;30.20;;;7.00;64.90;;;2.59;89.07;96740.34;4931034;29;20065;-65
2022/01/16 09:40:51;;;;;;;44.63;29.85;;;8.20;61.50;;;2.82;89.81;96751.47;4898191;29;20419;-65
2022/01/16 09:43:17;;;;;;;41.72;30.38;;;9.40;58.40;;;3.13;90.26;96754.13;4893884;29;20456;-65
2022/01/16 09:45:42;;;;;;;38.83;30.15;;;10.50;54.40;;;3.53;89.45;96751.66;4883312;29;20338;-66
2022/01/16 09:48:08;;;;;;;39.53;30.02;;;11.30;49.80;;;3.97;88.98;96755.66;4947902;28;20083;-66
2022/01/16 09:50:35;;;;;;;49.17;35.25;;;12.30;47.40;;;4.41;88.20;96754.41;4881848;29;20131;-66
2022/01/16 09:53:00;;;;;;;38.40;29.52;;;13.00;45.20;;;4.85;86.42;96760.09;4915194;29;20032;-66
2022/01/16 09:55:26;;;;;;;47.55;38.35;;;13.60;42.10;;;5.21;85.27;96759.38;4913952;29;20452;-66
2022/01/16 09:57:54;;;;;;;52.63;40.20;;;14.30;41.90;;;5.64;84.28;96749.38;4912621;29;20575;-66
2022/01/16 10:00:21;;;;;;;39.45;29.77;;;15.40;39.00;;;6.03;83.60;96742.25;4899909;29;20039;-66
2022/01/16 10:02:47;;;;;;;45.60;33.30;;;15.90;37.20;;;6.37;81.35;96738.09;4915281;29;20501;-67
2022/01/16 10:05:43;;;;;;;40.17;30.52;;;16.10;37.00;;;6.80;73.23;96733.94;4926979;29;20555;-67
2022/01/16 10:08:11;;;;;;;32.47;25.55;;;16.70;36.30;;;7.04;79.39;96730.72;4914358;29;20044;-66
2022/01/16 10:10:40;;;;;;;33.88;25.77;;;17.10;34.60;;;7.38;77.71;96734.22;4925271;29;20107;-65
2022/01/16 10:13:23;;;;;;;33.88;25.38;;;18.10;33.70;;;7.76;69.96;96723.50;4884654;29;20036;-65
2022/01/16 10:15:56;;;;;;;31.05;24.80;;;18.90;32.30;;;8.06;71.40;96722.16;4930825;28;20055;-66
2022/01/16 10:18:34;;;;;;;31.55;23.25;;;19.10;30.80;;;8.32;69.37;96717.66;4913217;29;20048;-65
2022/01/16 10:21:00;;;;;;;30.92;23.67;;;18.70;31.40;;;8.53;73.21;96719.88;4897179;29;20086;-65
2022/01/16 10:23:25;;;;;;;28.85;23.15;;;19.50;30.40;;;8.75;71.97;96724.50;4929700;29;20044;-65
2022/01/16 10:25:51;;;;;;;25.33;20.98;;;20.40;29.40;;;8.98;71.57;96718.59;4911641;29;20104;-66
2022/01/16 10:28:23;;;;;;;26.50;22.08;;;20.70;28.80;;;9.19;69.97;96714.50;4922914;29;20048;-65
2022/01/16 10:30:57;;;;;;;26.50;22.13;;;20.90;28.40;;;9.41;65.47;96714.81;4885270;29;20048;-65
2022/01/16 10:33:25;;;;;;;26.45;21.58;;;21.10;27.60;;;9.58;69.67;96705.09;4932892;29;20036;-65
2022/01/16 10:35:54;;;;;;;24.38;20.58;;;21.00;27.50;;;9.75;68.80;96710.16;4900248;29;20461;-66
2022/01/16 10:38:26;;;;;;;25.02;20.45;;;21.40;27.30;;;9.92;62.55;96704.81;4898835;29;20462;-65
2022/01/16 10:40:54;;;;;;;29.60;24.10;;;21.50;26.80;;;10.04;66.94;96700.84;4932339;29;20054;-66
2022/01/16 10:43:38;;;;;;;25.42;21.05;;;21.60;26.70;;;10.14;59.97;96696.19;4884649;29;20035;-65
2022/01/16 10:46:04;;;;;;;25.65;20.80;;;21.60;26.60;;;10.23;65.86;96697.84;4922911;29;20624;-65
2022/01/16 10:48:32;;;;;;;24.35;20.30;;;21.50;27.00;;;10.38;65.40;96696.09;4929698;29;20055;-66